sensor_id;sensor_type;location;lat;lon;timestamp;P1;durP1;ratioP1;P2;durP2;ratioP2
4409;SDS011;2218;51.408;7.208;2023-09-07T00:00:32;1.47;;;1.37;;
4409;SDS011;2218;51.408;7.208;2023-09-07T00:03:00;1.40;;;1.30;;
4409;SDS011;2218;51.408;7.208;2023-09-07T00:05:27;1.43;;;1.33;;
4409;SDS011;2218;51.408;7.208;2023-09-07T00:07:54;1.30;;;1.20;;
4409;SDS011;2218;51.408;7.208;2023-09-07T00:10:22;1.60;;;1.50;;
4409;SDS011;2218;51.408;7.208;2023-09-07T00:12:50;1.50;;;1.40;;
4409;SDS011;2218;51.408;7.208;2023-09-07T00:15:17;1.43;;;1.33;;
4409;SDS011;2218;51.408;7.208;2023-09-07T00:17:46;1.40;;;1.30;;
4409;SDS011;2218;51.408;7.208;2023-09-07T00:20:14;1.30;;;1.20;;
4409;SDS011;2218;51.408;7.208;2023-09-07T00:22:41;1.73;;;1.40;;
4409;SDS011;2218;51.408;7.208;2023-09-07T00:25:08;1.50;;;1.40;;
4409;SDS011;2218;51.408;7.208;2023-09-07T00:27:35;1.40;;;1.30;;
4409;SDS011;2218;51.408;7.208;2023-09-07T00:30:02;1.63;;;1.53;;
4409;SDS011;2218;51.408;7.208;2023-09-07T00:32:31;1.50;;;1.40;;
4409;SDS011;2218;51.408;7.208;2023-09-07T00:34:59;1.70;;;1.60;;
4409;SDS011;2218;51.408;7.208;2023-09-07T00:37:27;1.43;;;1.33;;
4409;SDS011;2218;51.408;7.208;2023-09-07T00:39:54;1.30;;;1.20;;
4409;SDS011;2218;51.408;7.208;2023-09-07T00:42:21;1.40;;;1.30;;
4409;SDS011;2218;51.408;7.208;2023-09-07T00:44:48;1.40;;;1.30;;
4409;SDS011;2218;51.408;7.208;2023-09-07T00:47:15;1.50;;;1.40;;
4409;SDS011;2218;51.408;7.208;2023-09-07T00:49:44;1.30;;;1.20;;
4409;SDS011;2218;51.408;7.208;2023-09-07T00:52:12;1.40;;;1.30;;
4409;SDS011;2218;51.408;7.208;2023-09-07T00:54:41;1.50;;;1.40;;
4409;SDS011;2218;51.408;7.208;2023-09-07T00:57:09;1.30;;;1.20;;
4409;SDS011;2218;51.408;7.208;2023-09-07T00:59:36;2.30;;;1.30;;
4409;SDS011;2218;51.408;7.208;2023-09-07T01:02:03;1.50;;;1.40;;
4409;SDS011;2218;51.408;7.208;2023-09-07T01:04:31;1.40;;;1.30;;
4409;SDS011;2218;51.408;7.208;2023-09-07T01:07:00;1.67;;;1.40;;
4409;SDS011;2218;51.408;7.208;2023-09-07T01:09:39;1.50;;;1.40;;
4409;SDS011;2218;51.408;7.208;2023-09-07T01:12:13;1.70;;;1.60;;
4409;SDS011;2218;51.408;7.208;2023-09-07T01:14:41;1.63;;;1.53;;
4409;SDS011;2218;51.408;7.208;2023-09-07T01:17:09;1.50;;;1.40;;
4409;SDS011;2218;51.408;7.208;2023-09-07T01:19:37;1.70;;;1.60;;
4409;SDS011;2218;51.408;7.208;2023-09-07T01:22:06;1.50;;;1.40;;
4409;SDS011;2218;51.408;7.208;2023-09-07T01:24:34;1.40;;;1.30;;
4409;SDS011;2218;51.408;7.208;2023-09-07T01:27:05;1.47;;;1.37;;
4409;SDS011;2218;51.408;7.208;2023-09-07T01:29:33;1.40;;;1.30;;
4409;SDS011;2218;51.408;7.208;2023-09-07T01:32:03;1.30;;;1.20;;
4409;SDS011;2218;51.408;7.208;2023-09-07T01:34:31;1.50;;;1.40;;
4409;SDS011;2218;51.408;7.208;2023-09-07T01:36:59;1.30;;;1.20;;
4409;SDS011;2218;51.408;7.208;2023-09-07T01:39:27;1.33;;;1.23;;
4409;SDS011;2218;51.408;7.208;2023-09-07T01:41:54;1.50;;;1.40;;
4409;SDS011;2218;51.408;7.208;2023-09-07T01:44:21;1.30;;;1.10;;
4409;SDS011;2218;51.408;7.208;2023-09-07T01:46:52;1.50;;;1.40;;
4409;SDS011;2218;51.408;7.208;2023-09-07T01:49:19;1.43;;;1.33;;
4409;SDS011;2218;51.408;7.208;2023-09-07T01:51:46;1.40;;;1.30;;
4409;SDS011;2218;51.408;7.208;2023-09-07T01:54:13;1.53;;;1.43;;
4409;SDS011;2218;51.408;7.208;2023-09-07T01:56:41;1.70;;;1.60;;
4409;SDS011;2218;51.408;7.208;2023-09-07T01:59:08;1.33;;;1.23;;
4409;SDS011;2218;51.408;7.208;2023-09-07T02:01:35;1.30;;;1.20;;
4409;SDS011;2218;51.408;7.208;2023-09-07T02:04:04;1.30;;;1.20;;
4409;SDS011;2218;51.408;7.208;2023-09-07T02:06:31;1.53;;;1.43;;
4409;SDS011;2218;51.408;7.208;2023-09-07T02:08:58;1.50;;;1.40;;
4409;SDS011;2218;51.408;7.208;2023-09-07T02:11:25;1.53;;;1.43;;
4409;SDS011;2218;51.408;7.208;2023-09-07T02:13:53;1.50;;;1.40;;
4409;SDS011;2218;51.408;7.208;2023-09-07T02:16:20;1.37;;;1.27;;
4409;SDS011;2218;51.408;7.208;2023-09-07T02:18:48;1.60;;;1.40;;
4409;SDS011;2218;51.408;7.208;2023-09-07T02:21:16;1.97;;;1.47;;
4409;SDS011;2218;51.408;7.208;2023-09-07T02:23:43;1.40;;;1.30;;
4409;SDS011;2218;51.408;7.208;2023-09-07T02:26:10;1.50;;;1.40;;
4409;SDS011;2218;51.408;7.208;2023-09-07T02:28:37;1.60;;;1.50;;
4409;SDS011;2218;51.408;7.208;2023-09-07T02:31:06;1.30;;;1.20;;
4409;SDS011;2218;51.408;7.208;2023-09-07T02:33:33;1.33;;;1.23;;
4409;SDS011;2218;51.408;7.208;2023-09-07T02:36:00;1.60;;;1.50;;
4409;SDS011;2218;51.408;7.208;2023-09-07T02:38:28;1.60;;;1.50;;
4409;SDS011;2218;51.408;7.208;2023-09-07T02:40:56;1.53;;;1.43;;
4409;SDS011;2218;51.408;7.208;2023-09-07T02:43:23;1.23;;;1.13;;
4409;SDS011;2218;51.408;7.208;2023-09-07T02:45:50;1.40;;;1.30;;
4409;SDS011;2218;51.408;7.208;2023-09-07T02:48:22;1.23;;;1.13;;
4409;SDS011;2218;51.408;7.208;2023-09-07T02:50:49;1.20;;;1.10;;
4409;SDS011;2218;51.408;7.208;2023-09-07T02:53:17;1.33;;;1.10;;
4409;SDS011;2218;51.408;7.208;2023-09-07T02:55:44;1.33;;;1.23;;
4409;SDS011;2218;51.408;7.208;2023-09-07T02:58:11;1.43;;;1.33;;
4409;SDS011;2218;51.408;7.208;2023-09-07T03:00:41;1.50;;;1.40;;
4409;SDS011;2218;51.408;7.208;2023-09-07T03:03:09;1.50;;;1.40;;
4409;SDS011;2218;51.408;7.208;2023-09-07T03:05:39;1.33;;;1.23;;
4409;SDS011;2218;51.408;7.208;2023-09-07T03:08:10;1.07;;;1.07;;
4409;SDS011;2218;51.408;7.208;2023-09-07T03:10:37;1.50;;;1.40;;
4409;SDS011;2218;51.408;7.208;2023-09-07T03:13:05;1.50;;;1.40;;
4409;SDS011;2218;51.408;7.208;2023-09-07T03:15:33;1.40;;;1.30;;
4409;SDS011;2218;51.408;7.208;2023-09-07T03:18:02;1.43;;;1.33;;
4409;SDS011;2218;51.408;7.208;2023-09-07T03:20:29;1.40;;;1.30;;
4409;SDS011;2218;51.408;7.208;2023-09-07T03:23:00;1.27;;;1.17;;
4409;SDS011;2218;51.408;7.208;2023-09-07T03:25:28;1.30;;;1.20;;
4409;SDS011;2218;51.408;7.208;2023-09-07T03:27:56;1.53;;;1.43;;
4409;SDS011;2218;51.408;7.208;2023-09-07T03:30:23;1.53;;;1.43;;
4409;SDS011;2218;51.408;7.208;2023-09-07T03:32:51;1.37;;;1.27;;
4409;SDS011;2218;51.408;7.208;2023-09-07T03:35:18;1.30;;;1.20;;
4409;SDS011;2218;51.408;7.208;2023-09-07T03:37:46;1.23;;;1.13;;
4409;SDS011;2218;51.408;7.208;2023-09-07T03:40:14;1.70;;;1.60;;
4409;SDS011;2218;51.408;7.208;2023-09-07T03:42:41;1.23;;;1.13;;
4409;SDS011;2218;51.408;7.208;2023-09-07T03:45:11;1.40;;;1.23;;
4409;SDS011;2218;51.408;7.208;2023-09-07T03:47:38;1.40;;;1.30;;
4409;SDS011;2218;51.408;7.208;2023-09-07T03:50:06;1.47;;;1.37;;
4409;SDS011;2218;51.408;7.208;2023-09-07T03:52:34;1.50;;;1.40;;
4409;SDS011;2218;51.408;7.208;2023-09-07T03:55:03;1.27;;;1.10;;
4409;SDS011;2218;51.408;7.208;2023-09-07T03:57:32;1.30;;;1.20;;
4409;SDS011;2218;51.408;7.208;2023-09-07T03:59:59;1.37;;;1.27;;
4409;SDS011;2218;51.408;7.208;2023-09-07T04:02:38;1.40;;;1.30;;
4409;SDS011;2218;51.408;7.208;2023-09-07T04:05:07;1.50;;;1.40;;
4409;SDS011;2218;51.408;7.208;2023-09-07T04:07:35;1.50;;;1.40;;
4409;SDS011;2218;51.408;7.208;2023-09-07T04:10:03;1.40;;;1.30;;
4409;SDS011;2218;51.408;7.208;2023-09-07T04:12:31;1.20;;;1.10;;
4409;SDS011;2218;51.408;7.208;2023-09-07T04:15:00;1.30;;;1.20;;
4409;SDS011;2218;51.408;7.208;2023-09-07T04:17:28;1.70;;;1.60;;
4409;SDS011;2218;51.408;7.208;2023-09-07T04:19:57;1.37;;;1.27;;
4409;SDS011;2218;51.408;7.208;2023-09-07T04:22:25;1.20;;;1.10;;
4409;SDS011;2218;51.408;7.208;2023-09-07T04:24:52;1.70;;;1.60;;
4409;SDS011;2218;51.408;7.208;2023-09-07T04:27:20;1.77;;;1.63;;
4409;SDS011;2218;51.408;7.208;2023-09-07T04:29:49;1.47;;;1.30;;
4409;SDS011;2218;51.408;7.208;2023-09-07T04:32:16;1.37;;;1.27;;
4409;SDS011;2218;51.408;7.208;2023-09-07T04:34:43;1.40;;;1.30;;
4409;SDS011;2218;51.408;7.208;2023-09-07T04:37:11;1.40;;;1.30;;
4409;SDS011;2218;51.408;7.208;2023-09-07T04:39:38;1.60;;;1.50;;
4409;SDS011;2218;51.408;7.208;2023-09-07T04:42:05;1.37;;;1.27;;
4409;SDS011;2218;51.408;7.208;2023-09-07T04:44:33;1.87;;;1.40;;
4409;SDS011;2218;51.408;7.208;2023-09-07T04:47:02;1.43;;;1.30;;
4409;SDS011;2218;51.408;7.208;2023-09-07T04:49:30;1.53;;;1.40;;
4409;SDS011;2218;51.408;7.208;2023-09-07T04:51:57;1.60;;;1.50;;
4409;SDS011;2218;51.408;7.208;2023-09-07T04:54:24;1.30;;;1.20;;
4409;SDS011;2218;51.408;7.208;2023-09-07T04:56:51;1.60;;;1.50;;
4409;SDS011;2218;51.408;7.208;2023-09-07T04:59:18;1.50;;;1.40;;
4409;SDS011;2218;51.408;7.208;2023-09-07T05:01:45;1.27;;;1.17;;
4409;SDS011;2218;51.408;7.208;2023-09-07T05:04:14;1.63;;;1.53;;
4409;SDS011;2218;51.408;7.208;2023-09-07T05:06:40;2.30;;;1.47;;
4409;SDS011;2218;51.408;7.208;2023-09-07T05:09:08;1.80;;;1.70;;
4409;SDS011;2218;51.408;7.208;2023-09-07T05:11:36;1.30;;;1.20;;
4409;SDS011;2218;51.408;7.208;2023-09-07T05:14:03;1.63;;;1.00;;
4409;SDS011;2218;51.408;7.208;2023-09-07T05:16:31;1.57;;;1.47;;
4409;SDS011;2218;51.408;7.208;2023-09-07T05:18:57;1.50;;;1.40;;
4409;SDS011;2218;51.408;7.208;2023-09-07T05:21:26;1.70;;;1.60;;
4409;SDS011;2218;51.408;7.208;2023-09-07T05:23:53;1.37;;;1.27;;
4409;SDS011;2218;51.408;7.208;2023-09-07T05:26:20;1.57;;;1.47;;
4409;SDS011;2218;51.408;7.208;2023-09-07T05:28:50;1.70;;;1.60;;
4409;SDS011;2218;51.408;7.208;2023-09-07T05:31:17;1.47;;;1.37;;
4409;SDS011;2218;51.408;7.208;2023-09-07T05:33:44;1.43;;;1.33;;
4409;SDS011;2218;51.408;7.208;2023-09-07T05:36:11;1.50;;;1.40;;
4409;SDS011;2218;51.408;7.208;2023-09-07T05:38:39;1.30;;;1.20;;
4409;SDS011;2218;51.408;7.208;2023-09-07T05:41:06;1.63;;;1.53;;
4409;SDS011;2218;51.408;7.208;2023-09-07T05:43:33;1.57;;;1.47;;
4409;SDS011;2218;51.408;7.208;2023-09-07T05:46:01;1.40;;;1.30;;
4409;SDS011;2218;51.408;7.208;2023-09-07T05:48:28;1.50;;;1.40;;
4409;SDS011;2218;51.408;7.208;2023-09-07T05:50:56;1.60;;;1.50;;
4409;SDS011;2218;51.408;7.208;2023-09-07T05:53:23;1.50;;;1.40;;
4409;SDS011;2218;51.408;7.208;2023-09-07T05:55:53;8.70;;;1.87;;
4409;SDS011;2218;51.408;7.208;2023-09-07T05:58:19;4.30;;;1.83;;
4409;SDS011;2218;51.408;7.208;2023-09-07T06:00:47;7.20;;;2.23;;
4409;SDS011;2218;51.408;7.208;2023-09-07T06:03:14;1.90;;;1.80;;
4409;SDS011;2218;51.408;7.208;2023-09-07T06:05:42;2.60;;;1.97;;
4409;SDS011;2218;51.408;7.208;2023-09-07T06:08:09;3.10;;;1.87;;
4409;SDS011;2218;51.408;7.208;2023-09-07T06:10:37;3.40;;;2.30;;
4409;SDS011;2218;51.408;7.208;2023-09-07T06:13:07;1.80;;;1.70;;
4409;SDS011;2218;51.408;7.208;2023-09-07T06:15:34;1.83;;;1.73;;
4409;SDS011;2218;51.408;7.208;2023-09-07T06:18:01;1.70;;;1.60;;
4409;SDS011;2218;51.408;7.208;2023-09-07T06:20:28;1.70;;;1.60;;
4409;SDS011;2218;51.408;7.208;2023-09-07T06:22:57;2.00;;;1.83;;
4409;SDS011;2218;51.408;7.208;2023-09-07T06:25:25;2.30;;;1.50;;
4409;SDS011;2218;51.408;7.208;2023-09-07T06:27:52;2.00;;;1.90;;
4409;SDS011;2218;51.408;7.208;2023-09-07T06:30:21;1.87;;;1.77;;
4409;SDS011;2218;51.408;7.208;2023-09-07T06:32:48;1.80;;;1.70;;
4409;SDS011;2218;51.408;7.208;2023-09-07T06:35:16;2.20;;;2.00;;
4409;SDS011;2218;51.408;7.208;2023-09-07T06:37:44;3.20;;;2.00;;
4409;SDS011;2218;51.408;7.208;2023-09-07T06:40:14;3.27;;;1.90;;
4409;SDS011;2218;51.408;7.208;2023-09-07T06:42:44;1.90;;;1.77;;
4409;SDS011;2218;51.408;7.208;2023-09-07T06:45:15;4.33;;;2.47;;
4409;SDS011;2218;51.408;7.208;2023-09-07T06:47:44;2.23;;;2.13;;
4409;SDS011;2218;51.408;7.208;2023-09-07T06:50:11;2.80;;;2.60;;
4409;SDS011;2218;51.408;7.208;2023-09-07T06:52:38;3.23;;;2.93;;
4409;SDS011;2218;51.408;7.208;2023-09-07T06:55:06;3.70;;;2.50;;
4409;SDS011;2218;51.408;7.208;2023-09-07T06:57:33;3.83;;;3.33;;
4409;SDS011;2218;51.408;7.208;2023-09-07T07:00:02;2.87;;;2.67;;
4409;SDS011;2218;51.408;7.208;2023-09-07T07:02:31;3.27;;;2.97;;
4409;SDS011;2218;51.408;7.208;2023-09-07T07:05:00;3.93;;;2.70;;
4409;SDS011;2218;51.408;7.208;2023-09-07T07:07:28;3.33;;;2.80;;
4409;SDS011;2218;51.408;7.208;2023-09-07T07:09:56;3.53;;;3.13;;
4409;SDS011;2218;51.408;7.208;2023-09-07T07:12:23;3.87;;;3.57;;
4409;SDS011;2218;51.408;7.208;2023-09-07T07:14:51;4.97;;;3.90;;
4409;SDS011;2218;51.408;7.208;2023-09-07T07:17:18;6.00;;;3.20;;
4409;SDS011;2218;51.408;7.208;2023-09-07T07:19:45;4.87;;;3.20;;
4409;SDS011;2218;51.408;7.208;2023-09-07T07:22:13;5.03;;;3.27;;
4409;SDS011;2218;51.408;7.208;2023-09-07T07:24:40;4.13;;;3.50;;
4409;SDS011;2218;51.408;7.208;2023-09-07T07:27:08;3.30;;;3.07;;
4409;SDS011;2218;51.408;7.208;2023-09-07T07:29:36;5.80;;;3.10;;
4409;SDS011;2218;51.408;7.208;2023-09-07T07:32:04;3.73;;;3.43;;
4409;SDS011;2218;51.408;7.208;2023-09-07T07:34:32;5.70;;;3.50;;
4409;SDS011;2218;51.408;7.208;2023-09-07T07:36:59;3.57;;;3.27;;
4409;SDS011;2218;51.408;7.208;2023-09-07T07:39:27;3.93;;;3.53;;
4409;SDS011;2218;51.408;7.208;2023-09-07T07:41:55;7.23;;;3.30;;
4409;SDS011;2218;51.408;7.208;2023-09-07T07:44:22;10.40;;;3.90;;
4409;SDS011;2218;51.408;7.208;2023-09-07T07:46:49;4.30;;;3.90;;
4409;SDS011;2218;51.408;7.208;2023-09-07T07:49:16;5.90;;;3.80;;
4409;SDS011;2218;51.408;7.208;2023-09-07T07:51:43;3.20;;;2.90;;
4409;SDS011;2218;51.408;7.208;2023-09-07T07:54:10;5.13;;;3.80;;
4409;SDS011;2218;51.408;7.208;2023-09-07T07:56:39;4.80;;;3.30;;
4409;SDS011;2218;51.408;7.208;2023-09-07T07:59:07;3.57;;;3.23;;
4409;SDS011;2218;51.408;7.208;2023-09-07T08:01:34;8.80;;;3.47;;
4409;SDS011;2218;51.408;7.208;2023-09-07T08:04:02;9.27;;;3.63;;
4409;SDS011;2218;51.408;7.208;2023-09-07T08:06:30;8.63;;;3.30;;
4409;SDS011;2218;51.408;7.208;2023-09-07T08:08:57;3.13;;;2.93;;
4409;SDS011;2218;51.408;7.208;2023-09-07T08:11:24;6.00;;;3.80;;
4409;SDS011;2218;51.408;7.208;2023-09-07T08:13:53;3.87;;;3.57;;
4409;SDS011;2218;51.408;7.208;2023-09-07T08:16:21;5.50;;;3.40;;
4409;SDS011;2218;51.408;7.208;2023-09-07T08:18:48;4.20;;;3.40;;
4409;SDS011;2218;51.408;7.208;2023-09-07T08:21:16;6.97;;;3.60;;
4409;SDS011;2218;51.408;7.208;2023-09-07T08:23:44;6.00;;;3.50;;
4409;SDS011;2218;51.408;7.208;2023-09-07T08:26:11;5.43;;;3.20;;
4409;SDS011;2218;51.408;7.208;2023-09-07T08:28:40;3.60;;;3.30;;
4409;SDS011;2218;51.408;7.208;2023-09-07T08:31:12;6.07;;;3.30;;
4409;SDS011;2218;51.408;7.208;2023-09-07T08:33:46;5.00;;;3.57;;
4409;SDS011;2218;51.408;7.208;2023-09-07T08:36:16;4.27;;;3.33;;
4409;SDS011;2218;51.408;7.208;2023-09-07T08:38:43;10.23;;;3.80;;
4409;SDS011;2218;51.408;7.208;2023-09-07T08:41:10;5.10;;;3.67;;
4409;SDS011;2218;51.408;7.208;2023-09-07T08:43:39;4.67;;;3.60;;
4409;SDS011;2218;51.408;7.208;2023-09-07T08:46:15;4.17;;;3.87;;
4409;SDS011;2218;51.408;7.208;2023-09-07T08:48:45;6.23;;;3.30;;
4409;SDS011;2218;51.408;7.208;2023-09-07T08:51:14;6.27;;;4.00;;
4409;SDS011;2218;51.408;7.208;2023-09-07T08:53:44;3.70;;;3.07;;
4409;SDS011;2218;51.408;7.208;2023-09-07T08:56:12;3.40;;;3.10;;
4409;SDS011;2218;51.408;7.208;2023-09-07T08:58:39;6.20;;;3.00;;
4409;SDS011;2218;51.408;7.208;2023-09-07T09:01:06;4.63;;;3.10;;
4409;SDS011;2218;51.408;7.208;2023-09-07T09:03:36;5.10;;;3.60;;
4409;SDS011;2218;51.408;7.208;2023-09-07T09:06:03;4.53;;;3.10;;
4409;SDS011;2218;51.408;7.208;2023-09-07T09:08:41;3.50;;;3.20;;
4409;SDS011;2218;51.408;7.208;2023-09-07T09:11:09;6.20;;;3.30;;
4409;SDS011;2218;51.408;7.208;2023-09-07T09:13:36;7.03;;;2.67;;
4409;SDS011;2218;51.408;7.208;2023-09-07T09:16:03;4.10;;;2.70;;
4409;SDS011;2218;51.408;7.208;2023-09-07T09:18:30;3.03;;;2.83;;
4409;SDS011;2218;51.408;7.208;2023-09-07T09:20:58;3.43;;;3.20;;
4409;SDS011;2218;51.408;7.208;2023-09-07T09:23:29;8.30;;;3.03;;
4409;SDS011;2218;51.408;7.208;2023-09-07T09:25:58;4.23;;;2.93;;
4409;SDS011;2218;51.408;7.208;2023-09-07T09:28:26;4.87;;;3.50;;
4409;SDS011;2218;51.408;7.208;2023-09-07T09:30:54;4.00;;;3.30;;
4409;SDS011;2218;51.408;7.208;2023-09-07T09:33:21;10.00;;;3.70;;
4409;SDS011;2218;51.408;7.208;2023-09-07T09:35:48;5.67;;;3.80;;
4409;SDS011;2218;51.408;7.208;2023-09-07T09:38:17;5.60;;;3.83;;
4409;SDS011;2218;51.408;7.208;2023-09-07T09:40:44;5.50;;;3.27;;
4409;SDS011;2218;51.408;7.208;2023-09-07T09:43:12;3.40;;;3.10;;
4409;SDS011;2218;51.408;7.208;2023-09-07T09:45:39;5.33;;;3.50;;
4409;SDS011;2218;51.408;7.208;2023-09-07T09:48:06;4.73;;;3.70;;
4409;SDS011;2218;51.408;7.208;2023-09-07T09:50:35;3.27;;;3.07;;
4409;SDS011;2218;51.408;7.208;2023-09-07T09:53:03;3.43;;;3.13;;
4409;SDS011;2218;51.408;7.208;2023-09-07T09:55:34;3.20;;;2.93;;
4409;SDS011;2218;51.408;7.208;2023-09-07T09:58:01;5.87;;;3.87;;
4409;SDS011;2218;51.408;7.208;2023-09-07T10:00:30;4.30;;;3.27;;
4409;SDS011;2218;51.408;7.208;2023-09-07T10:03:04;3.30;;;3.10;;
4409;SDS011;2218;51.408;7.208;2023-09-07T10:05:37;6.03;;;3.80;;
4409;SDS011;2218;51.408;7.208;2023-09-07T10:08:08;4.40;;;3.40;;
4409;SDS011;2218;51.408;7.208;2023-09-07T10:10:40;5.13;;;3.47;;
4409;SDS011;2218;51.408;7.208;2023-09-07T10:13:13;7.30;;;3.47;;
4409;SDS011;2218;51.408;7.208;2023-09-07T10:15:42;10.10;;;3.07;;
4409;SDS011;2218;51.408;7.208;2023-09-07T10:18:10;9.13;;;3.57;;
4409;SDS011;2218;51.408;7.208;2023-09-07T10:20:49;8.60;;;3.60;;
4409;SDS011;2218;51.408;7.208;2023-09-07T10:23:19;5.43;;;3.40;;
4409;SDS011;2218;51.408;7.208;2023-09-07T10:25:48;8.10;;;3.47;;
4409;SDS011;2218;51.408;7.208;2023-09-07T10:28:20;4.43;;;3.23;;
4409;SDS011;2218;51.408;7.208;2023-09-07T10:30:59;3.80;;;3.03;;
4409;SDS011;2218;51.408;7.208;2023-09-07T10:33:29;3.67;;;2.63;;
4409;SDS011;2218;51.408;7.208;2023-09-07T10:35:57;9.03;;;3.50;;
4409;SDS011;2218;51.408;7.208;2023-09-07T10:38:25;4.70;;;3.00;;
4409;SDS011;2218;51.408;7.208;2023-09-07T10:40:56;8.63;;;3.40;;
4409;SDS011;2218;51.408;7.208;2023-09-07T10:43:24;6.27;;;2.93;;
4409;SDS011;2218;51.408;7.208;2023-09-07T10:45:52;4.30;;;3.23;;
4409;SDS011;2218;51.408;7.208;2023-09-07T10:48:20;4.30;;;2.90;;
4409;SDS011;2218;51.408;7.208;2023-09-07T10:50:47;3.47;;;3.17;;
4409;SDS011;2218;51.408;7.208;2023-09-07T10:53:24;4.00;;;3.60;;
4409;SDS011;2218;51.408;7.208;2023-09-07T10:55:53;3.90;;;3.60;;
4409;SDS011;2218;51.408;7.208;2023-09-07T10:58:24;5.83;;;3.30;;
4409;SDS011;2218;51.408;7.208;2023-09-07T11:00:53;3.30;;;3.10;;
4409;SDS011;2218;51.408;7.208;2023-09-07T11:03:20;3.97;;;3.50;;
4409;SDS011;2218;51.408;7.208;2023-09-07T11:05:48;4.73;;;3.40;;
4409;SDS011;2218;51.408;7.208;2023-09-07T11:08:19;6.03;;;3.53;;
4409;SDS011;2218;51.408;7.208;2023-09-07T11:10:46;4.63;;;4.20;;
4409;SDS011;2218;51.408;7.208;2023-09-07T11:13:15;3.53;;;3.23;;
4409;SDS011;2218;51.408;7.208;2023-09-07T11:15:42;3.67;;;3.40;;
4409;SDS011;2218;51.408;7.208;2023-09-07T11:18:09;3.37;;;3.07;;
4409;SDS011;2218;51.408;7.208;2023-09-07T11:20:36;6.83;;;3.57;;
4409;SDS011;2218;51.408;7.208;2023-09-07T11:23:05;3.60;;;3.30;;
4409;SDS011;2218;51.408;7.208;2023-09-07T11:25:35;4.17;;;3.43;;
4409;SDS011;2218;51.408;7.208;2023-09-07T11:28:03;3.93;;;3.43;;
4409;SDS011;2218;51.408;7.208;2023-09-07T11:30:33;4.03;;;3.53;;
4409;SDS011;2218;51.408;7.208;2023-09-07T11:33:01;3.90;;;3.60;;
4409;SDS011;2218;51.408;7.208;2023-09-07T11:35:30;5.23;;;3.97;;
4409;SDS011;2218;51.408;7.208;2023-09-07T11:37:58;7.80;;;4.13;;
4409;SDS011;2218;51.408;7.208;2023-09-07T11:40:26;6.17;;;3.33;;
4409;SDS011;2218;51.408;7.208;2023-09-07T11:42:53;10.93;;;3.87;;
4409;SDS011;2218;51.408;7.208;2023-09-07T11:45:20;3.80;;;3.50;;
4409;SDS011;2218;51.408;7.208;2023-09-07T11:47:49;10.20;;;3.60;;
4409;SDS011;2218;51.408;7.208;2023-09-07T11:50:16;3.37;;;3.13;;
4409;SDS011;2218;51.408;7.208;2023-09-07T11:52:43;3.57;;;3.23;;
4409;SDS011;2218;51.408;7.208;2023-09-07T11:55:10;3.97;;;3.37;;
4409;SDS011;2218;51.408;7.208;2023-09-07T11:57:39;3.87;;;3.57;;
4409;SDS011;2218;51.408;7.208;2023-09-07T12:00:08;3.70;;;3.40;;
4409;SDS011;2218;51.408;7.208;2023-09-07T12:02:39;3.47;;;3.17;;
4409;SDS011;2218;51.408;7.208;2023-09-07T12:05:08;3.70;;;3.40;;
4409;SDS011;2218;51.408;7.208;2023-09-07T12:07:39;4.10;;;3.37;;
4409;SDS011;2218;51.408;7.208;2023-09-07T12:10:08;4.90;;;3.10;;
4409;SDS011;2218;51.408;7.208;2023-09-07T12:12:36;4.83;;;4.30;;
4409;SDS011;2218;51.408;7.208;2023-09-07T12:15:03;3.50;;;3.20;;
4409;SDS011;2218;51.408;7.208;2023-09-07T12:17:31;4.10;;;3.70;;
4409;SDS011;2218;51.408;7.208;2023-09-07T12:19:59;5.20;;;3.67;;
4409;SDS011;2218;51.408;7.208;2023-09-07T12:22:27;4.00;;;3.60;;
4409;SDS011;2218;51.408;7.208;2023-09-07T12:24:55;3.60;;;3.40;;
4409;SDS011;2218;51.408;7.208;2023-09-07T12:27:22;3.50;;;3.20;;
4409;SDS011;2218;51.408;7.208;2023-09-07T12:29:49;3.10;;;2.90;;
4409;SDS011;2218;51.408;7.208;2023-09-07T12:32:16;3.67;;;3.10;;
4409;SDS011;2218;51.408;7.208;2023-09-07T12:34:43;4.03;;;3.60;;
4409;SDS011;2218;51.408;7.208;2023-09-07T12:37:10;4.00;;;3.70;;
4409;SDS011;2218;51.408;7.208;2023-09-07T12:39:38;5.13;;;3.17;;
4409;SDS011;2218;51.408;7.208;2023-09-07T12:42:05;3.40;;;3.00;;
4409;SDS011;2218;51.408;7.208;2023-09-07T12:44:32;3.87;;;3.57;;
4409;SDS011;2218;51.408;7.208;2023-09-07T12:46:59;3.47;;;3.17;;
4409;SDS011;2218;51.408;7.208;2023-09-07T12:49:26;4.03;;;3.63;;
4409;SDS011;2218;51.408;7.208;2023-09-07T12:51:53;4.10;;;3.70;;
4409;SDS011;2218;51.408;7.208;2023-09-07T12:54:20;4.73;;;4.17;;
4409;SDS011;2218;51.408;7.208;2023-09-07T12:56:48;4.17;;;3.87;;
4409;SDS011;2218;51.408;7.208;2023-09-07T12:59:15;4.20;;;3.60;;
4409;SDS011;2218;51.408;7.208;2023-09-07T13:01:42;4.10;;;3.70;;
4409;SDS011;2218;51.408;7.208;2023-09-07T13:04:09;3.20;;;3.00;;
4409;SDS011;2218;51.408;7.208;2023-09-07T13:06:36;3.10;;;2.90;;
4409;SDS011;2218;51.408;7.208;2023-09-07T13:09:04;4.83;;;3.97;;
4409;SDS011;2218;51.408;7.208;2023-09-07T13:11:31;5.97;;;3.73;;
4409;SDS011;2218;51.408;7.208;2023-09-07T13:13:59;3.50;;;3.00;;
4409;SDS011;2218;51.408;7.208;2023-09-07T13:16:26;4.40;;;3.50;;
4409;SDS011;2218;51.408;7.208;2023-09-07T13:18:53;3.70;;;3.50;;
4409;SDS011;2218;51.408;7.208;2023-09-07T13:21:20;4.27;;;3.70;;
4409;SDS011;2218;51.408;7.208;2023-09-07T13:23:48;3.30;;;3.03;;
4409;SDS011;2218;51.408;7.208;2023-09-07T13:26:15;7.40;;;3.97;;
4409;SDS011;2218;51.408;7.208;2023-09-07T13:28:42;4.30;;;3.90;;
4409;SDS011;2218;51.408;7.208;2023-09-07T13:31:10;4.23;;;3.83;;
4409;SDS011;2218;51.408;7.208;2023-09-07T13:33:37;4.33;;;3.93;;
4409;SDS011;2218;51.408;7.208;2023-09-07T13:36:04;5.10;;;3.80;;
4409;SDS011;2218;51.408;7.208;2023-09-07T13:38:31;3.80;;;3.50;;
4409;SDS011;2218;51.408;7.208;2023-09-07T13:40:58;11.23;;;3.83;;
4409;SDS011;2218;51.408;7.208;2023-09-07T13:43:25;4.43;;;3.80;;
4409;SDS011;2218;51.408;7.208;2023-09-07T13:45:52;4.97;;;4.20;;
4409;SDS011;2218;51.408;7.208;2023-09-07T13:48:20;3.80;;;3.50;;
4409;SDS011;2218;51.408;7.208;2023-09-07T13:50:47;5.70;;;3.87;;
4409;SDS011;2218;51.408;7.208;2023-09-07T13:53:14;5.90;;;3.80;;
4409;SDS011;2218;51.408;7.208;2023-09-07T13:55:41;5.70;;;4.37;;
4409;SDS011;2218;51.408;7.208;2023-09-07T13:58:11;8.73;;;4.07;;
4409;SDS011;2218;51.408;7.208;2023-09-07T14:00:38;6.93;;;3.40;;
4409;SDS011;2218;51.408;7.208;2023-09-07T14:03:05;7.03;;;3.77;;
4409;SDS011;2218;51.408;7.208;2023-09-07T14:05:33;6.57;;;3.73;;
4409;SDS011;2218;51.408;7.208;2023-09-07T14:08:00;5.47;;;3.43;;
4409;SDS011;2218;51.408;7.208;2023-09-07T14:10:27;5.17;;;4.60;;
4409;SDS011;2218;51.408;7.208;2023-09-07T14:12:54;7.87;;;4.20;;
4409;SDS011;2218;51.408;7.208;2023-09-07T14:15:21;7.30;;;3.90;;
4409;SDS011;2218;51.408;7.208;2023-09-07T14:17:48;4.93;;;3.43;;
4409;SDS011;2218;51.408;7.208;2023-09-07T14:20:15;4.30;;;3.70;;
4409;SDS011;2218;51.408;7.208;2023-09-07T14:22:43;10.40;;;3.43;;
4409;SDS011;2218;51.408;7.208;2023-09-07T14:25:10;3.60;;;2.87;;
4409;SDS011;2218;51.408;7.208;2023-09-07T14:27:39;4.30;;;3.90;;
4409;SDS011;2218;51.408;7.208;2023-09-07T14:30:06;6.67;;;4.87;;
4409;SDS011;2218;51.408;7.208;2023-09-07T14:32:34;12.20;;;3.60;;
4409;SDS011;2218;51.408;7.208;2023-09-07T14:35:01;4.33;;;3.93;;
4409;SDS011;2218;51.408;7.208;2023-09-07T14:37:28;5.50;;;3.30;;
4409;SDS011;2218;51.408;7.208;2023-09-07T14:39:56;4.73;;;3.67;;
4409;SDS011;2218;51.408;7.208;2023-09-07T14:42:24;6.10;;;3.50;;
4409;SDS011;2218;51.408;7.208;2023-09-07T14:44:51;4.20;;;3.80;;
4409;SDS011;2218;51.408;7.208;2023-09-07T14:47:19;5.67;;;3.70;;
4409;SDS011;2218;51.408;7.208;2023-09-07T14:49:50;9.13;;;3.70;;
4409;SDS011;2218;51.408;7.208;2023-09-07T14:52:18;4.80;;;3.50;;
4409;SDS011;2218;51.408;7.208;2023-09-07T14:54:47;4.87;;;3.63;;
4409;SDS011;2218;51.408;7.208;2023-09-07T14:57:15;3.77;;;3.47;;
4409;SDS011;2218;51.408;7.208;2023-09-07T14:59:42;9.13;;;3.60;;
4409;SDS011;2218;51.408;7.208;2023-09-07T15:02:09;7.87;;;3.63;;
4409;SDS011;2218;51.408;7.208;2023-09-07T15:04:36;5.70;;;4.00;;
4409;SDS011;2218;51.408;7.208;2023-09-07T15:07:03;4.77;;;3.50;;
4409;SDS011;2218;51.408;7.208;2023-09-07T15:09:31;3.67;;;3.33;;
4409;SDS011;2218;51.408;7.208;2023-09-07T15:11:58;4.17;;;3.30;;
4409;SDS011;2218;51.408;7.208;2023-09-07T15:14:27;3.40;;;3.10;;
4409;SDS011;2218;51.408;7.208;2023-09-07T15:16:54;3.27;;;3.03;;
4409;SDS011;2218;51.408;7.208;2023-09-07T15:19:21;3.87;;;3.30;;